KABI

Abilene Regional Airport

Airport
ICAO code
KABI
IATA Code
ABI
Summary
ICAO Region
NAM
ICAO Territory
Location

Abilene, Texas

Serving
Abilene
Elevation
1791 ft
Coordinates
32° 24' 40" N , 99° 40' 54" W
KCC
Airport LOS
Parallel Runway Operation
Metar
KABI 151552Z 19011G19KT 10SM CLR 28/20 A2997 RMK AO2 SLP121 T02780200 $

Description

Abilene Regional Airport is a public use airport located 5 km southeast of the central business district of Abilene, in Taylor County, Texas.

Airport map

Aerial View

SKYbrary Partners:

Safety knowledge contributed by: